Coffman Cove, Alaska
Current Conditions -  °F | °C
As of 5:40 AM on Saturday 22 Nov 2014 (Local Time) from PAKW Reporting Station
Moderate Rain Moderate Rain  
Wind Chill: 41°   Ceiling: 2300
Heat Index: 41°   Visibility: 3mi
Dew Point: 39°   Wind: 0mph
Humidity: 93%   Direction: NA
Pressure: 29.35"   Gusts: NA
Location:  56.01°N, 132.83°W
Report Text: PAKW 221440Z AUTO 00000KT 3SM RA BR FEW011 BKN023 OVC032 05/04 A2935 RMK AO2 P0005 T00500039 TSNO $
Loading
Personal Weather Stations






























Interactive Weather Map New forecast layout! Learn more

10-Day Weather Forecast

Advertisements
Track Severe Weather on mobile